createdAt,value
2018-09-03T00:01:42.721Z,6.13
2018-09-03T00:04:11.181Z,7.87
2018-09-03T00:06:39.720Z,6.40
2018-09-03T00:09:09.803Z,7.97
2018-09-03T00:11:38.234Z,8.63
2018-09-03T00:14:07.126Z,7.17
2018-09-03T00:16:35.779Z,7.70
2018-09-03T00:19:04.318Z,7.47
2018-09-03T00:21:32.996Z,8.53
2018-09-03T00:24:01.577Z,5.97
2018-09-03T00:26:30.051Z,6.30
2018-09-03T00:28:58.533Z,5.50
2018-09-03T00:31:32.209Z,8.07
2018-09-03T00:34:06.014Z,5.93
2018-09-03T00:36:39.756Z,5.13
2018-09-03T00:39:13.563Z,7.27
2018-09-03T00:41:47.549Z,11.67
2018-09-03T00:44:21.088Z,7.23
2018-09-03T00:46:54.802Z,6.40
2018-09-03T00:49:23.361Z,7.20
2018-09-03T00:51:51.812Z,5.33
2018-09-03T00:54:20.312Z,6.27
2018-09-03T00:56:48.821Z,10.13
2018-09-03T00:59:17.341Z,8.40
2018-09-03T01:01:45.887Z,5.40
2018-09-03T01:04:14.331Z,7.53
2018-09-03T01:06:45.479Z,7.67
2018-09-03T01:09:33.321Z,6.03
2018-09-03T01:12:01.818Z,7.63
2018-09-03T01:14:30.709Z,5.27
2018-09-03T01:16:59.285Z,7.20
2018-09-03T01:19:29.871Z,5.53
2018-09-03T01:21:58.394Z,5.97
2018-09-03T01:24:26.871Z,9.20
2018-09-03T01:26:55.644Z,5.57
2018-09-03T01:29:24.176Z,6.53
2018-09-03T01:31:59.515Z,8.37
2018-09-03T01:34:28.080Z,8.50
2018-09-03T01:36:56.508Z,7.20
2018-09-03T01:39:24.953Z,7.13
2018-09-03T01:41:53.421Z,5.60
2018-09-03T01:44:21.893Z,8.57
2018-09-03T01:46:50.384Z,5.40
2018-09-03T01:49:18.855Z,10.73
2018-09-03T01:51:47.394Z,4.87
2018-09-03T01:54:26.677Z,6.53
2018-09-03T01:56:55.162Z,5.17
2018-09-03T01:59:24.769Z,5.23
2018-09-03T02:01:53.223Z,5.93
2018-09-03T02:04:21.680Z,5.93
2018-09-03T02:06:50.117Z,11.13
2018-09-03T02:09:18.580Z,7.47
2018-09-03T02:11:47.098Z,7.20
2018-09-03T02:14:15.575Z,5.33
2018-09-03T02:16:44.265Z,5.30
2018-09-03T02:19:12.733Z,5.93
2018-09-03T02:21:41.277Z,5.00
2018-09-03T02:24:09.800Z,7.33
2018-09-03T02:26:38.316Z,5.70
2018-09-03T02:29:12.368Z,6.77
2018-09-03T02:31:48.354Z,7.97
2018-09-03T02:34:16.947Z,8.93
2018-09-03T02:36:45.442Z,7.13
2018-09-03T02:39:14.067Z,7.33
2018-09-03T02:41:42.628Z,6.67
2018-09-03T02:44:11.162Z,11.37
2018-09-03T02:46:39.646Z,9.80
2018-09-03T02:49:08.247Z,7.20
2018-09-03T02:51:36.723Z,5.83
2018-09-03T02:54:05.732Z,6.17
2018-09-03T02:56:34.192Z,7.10
2018-09-03T02:59:02.845Z,6.20
2018-09-03T03:01:31.285Z,9.50
2018-09-03T03:03:59.733Z,8.00
2018-09-03T03:06:28.314Z,7.40
2018-09-03T03:08:56.912Z,10.03
2018-09-03T03:11:25.343Z,14.00
2018-09-03T03:13:53.876Z,8.60
2018-09-03T03:16:22.387Z,8.23
2018-09-03T03:18:50.937Z,9.27
2018-09-03T03:21:19.421Z,9.00
2018-09-03T03:23:47.911Z,10.73
2018-09-03T03:26:16.379Z,10.93
2018-09-03T03:28:44.824Z,10.13
2018-09-03T03:31:13.294Z,9.43
2018-09-03T03:33:41.816Z,9.50
2018-09-03T03:36:10.511Z,11.13
2018-09-03T03:38:38.992Z,7.30
2018-09-03T03:41:07.474Z,6.40
2018-09-03T03:43:58.606Z,14.77
2018-09-03T03:46:27.059Z,11.97
2018-09-03T03:48:55.605Z,7.13
2018-09-03T03:51:37.256Z,12.30
2018-09-03T03:54:45.015Z,7.27
2018-09-03T03:57:13.625Z,7.17
2018-09-03T03:59:42.152Z,8.23
2018-09-03T04:02:10.763Z,9.07
2018-09-03T04:05:27.277Z,7.73
2018-09-03T04:07:55.840Z,8.77
2018-09-03T04:10:24.272Z,9.23
2018-09-03T04:12:58.128Z,8.37
2018-09-03T04:15:26.765Z,8.93
2018-09-03T04:17:55.350Z,9.13
2018-09-03T04:20:23.812Z,10.63
2018-09-03T04:22:52.300Z,8.30
2018-09-03T04:25:20.799Z,12.93
2018-09-03T04:27:49.254Z,8.93
2018-09-03T04:30:18.005Z,7.70
2018-09-03T04:32:46.548Z,7.47
2018-09-03T04:35:15.029Z,11.60
2018-09-03T04:37:43.514Z,9.40
2018-09-03T04:40:12.202Z,10.93
2018-09-03T04:42:40.748Z,8.77
2018-09-03T04:45:09.202Z,10.77
2018-09-03T04:47:37.758Z,9.87
2018-09-03T04:50:06.365Z,11.07
2018-09-03T04:52:35.051Z,13.67
2018-09-03T04:55:03.641Z,13.43
2018-09-03T04:57:32.189Z,11.60
2018-09-03T05:00:00.680Z,9.97
2018-09-03T05:02:29.264Z,13.30
2018-09-03T05:04:57.745Z,14.23
2018-09-03T05:07:26.341Z,15.77
2018-09-03T05:10:02.321Z,12.53
2018-09-03T05:12:55.480Z,14.10
2018-09-03T05:15:24.028Z,14.27
2018-09-03T05:17:53.148Z,12.83
2018-09-03T05:20:21.691Z,13.53
2018-09-03T05:22:50.185Z,12.70
2018-09-03T05:25:18.633Z,10.20
2018-09-03T05:27:47.074Z,12.03
2018-09-03T05:30:15.630Z,11.20
2018-09-03T05:32:44.107Z,10.37
2018-09-03T05:35:13.332Z,15.20
2018-09-03T05:37:41.814Z,12.10
2018-09-03T05:40:10.602Z,13.63
2018-09-03T05:42:48.587Z,12.30
2018-09-03T05:45:17.075Z,16.60
2018-09-03T05:47:46.663Z,10.73
2018-09-03T05:50:15.192Z,13.50
2018-09-03T05:52:43.628Z,15.47
2018-09-03T05:55:12.401Z,14.33
2018-09-03T05:57:40.911Z,14.53
2018-09-03T06:00:09.738Z,14.00
2018-09-03T06:02:38.297Z,15.00
2018-09-03T06:05:07.000Z,16.50
2018-09-03T06:07:35.622Z,15.27
2018-09-03T06:10:04.174Z,15.17
2018-09-03T06:12:32.658Z,14.43
2018-09-03T06:15:01.295Z,13.07
2018-09-03T06:17:33.585Z,14.30
2018-09-03T06:20:02.069Z,17.53
2018-09-03T06:22:30.649Z,14.60
2018-09-03T06:24:59.420Z,14.40
2018-09-03T06:27:27.947Z,16.43
2018-09-03T06:29:56.390Z,15.73
2018-09-03T06:32:25.281Z,13.83
2018-09-03T06:35:00.010Z,13.90
2018-09-03T06:37:28.549Z,15.17
2018-09-03T06:39:57.086Z,16.70
2018-09-03T06:42:26.496Z,18.53
2018-09-03T06:44:55.041Z,15.70
2018-09-03T06:47:23.595Z,16.77
2018-09-03T06:49:52.500Z,14.57
2018-09-03T06:52:21.069Z,15.77
2018-09-03T06:54:49.588Z,17.13
2018-09-03T06:57:23.231Z,19.40
2018-09-03T07:00:20.115Z,15.63
2018-09-03T07:02:48.691Z,17.97
2018-09-03T07:05:17.262Z,16.20
2018-09-03T07:07:45.840Z,19.10
2018-09-03T07:10:14.394Z,16.97
2018-09-03T07:12:43.003Z,16.50
2018-09-03T07:15:11.568Z,15.93
2018-09-03T07:17:40.578Z,15.90
2018-09-03T07:20:27.364Z,18.40
2018-09-03T07:22:56.119Z,14.87
2018-09-03T07:25:24.641Z,18.40
2018-09-03T07:27:53.113Z,16.77
2018-09-03T07:30:21.636Z,18.37
2018-09-03T07:32:50.185Z,17.97
2018-09-03T07:35:18.657Z,17.10
2018-09-03T07:37:47.240Z,18.03
2018-09-03T07:40:15.752Z,19.50
2018-09-03T07:42:44.213Z,18.77
2018-09-03T07:45:12.749Z,19.53
2018-09-03T07:47:42.067Z,18.73
2018-09-03T07:50:10.509Z,18.07
2018-09-03T07:52:39.080Z,24.17
2018-09-03T07:55:15.246Z,18.53
2018-09-03T07:57:43.805Z,19.00
2018-09-03T08:00:13.983Z,22.87
2018-09-03T08:02:42.725Z,19.30
2018-09-03T08:05:11.191Z,21.70
2018-09-03T08:07:39.686Z,20.27
2018-09-03T08:10:16.890Z,21.53
2018-09-03T08:12:45.520Z,20.77
2018-09-03T08:15:14.038Z,22.13
2018-09-03T08:17:42.669Z,20.10
2018-09-03T08:20:11.131Z,23.67
2018-09-03T08:22:39.705Z,20.50
2018-09-03T08:25:08.200Z,21.67
2018-09-03T08:27:36.756Z,21.57
2018-09-03T08:30:06.293Z,22.93
2018-09-03T08:32:34.868Z,22.10
2018-09-03T08:35:03.456Z,23.77
2018-09-03T08:37:32.481Z,20.33
2018-09-03T08:40:01.004Z,22.57
2018-09-03T08:42:54.509Z,24.77
2018-09-03T08:45:22.959Z,24.37
2018-09-03T08:47:58.937Z,23.13
2018-09-03T08:50:27.559Z,26.37
2018-09-03T08:52:55.985Z,25.03
2018-09-03T08:55:24.509Z,27.07
2018-09-03T08:57:53.042Z,27.50
2018-09-03T09:00:21.545Z,25.80
2018-09-03T09:02:50.262Z,28.23
2018-09-03T09:05:18.774Z,25.80
2018-09-03T09:07:47.271Z,28.07
2018-09-03T09:10:15.819Z,29.00
2018-09-03T09:12:44.341Z,31.63
2018-09-03T09:15:12.837Z,28.87
2018-09-03T09:17:41.448Z,27.03
2018-09-03T09:20:09.994Z,31.00
2018-09-03T09:22:38.512Z,32.07
2018-09-03T09:25:07.146Z,27.73
2018-09-03T09:27:35.691Z,27.53
2018-09-03T09:30:05.261Z,35.53
2018-09-03T09:32:33.835Z,29.07
2018-09-03T09:35:02.340Z,25.07
2018-09-03T09:37:31.171Z,31.37
2018-09-03T09:39:59.692Z,29.83
2018-09-03T09:42:28.308Z,23.97
2018-09-03T09:44:56.866Z,26.50
2018-09-03T09:47:25.970Z,26.80
2018-09-03T09:49:54.627Z,25.60
2018-09-03T09:52:23.121Z,28.97
2018-09-03T09:54:51.615Z,26.60
2018-09-03T09:57:20.017Z,29.43
2018-09-03T09:59:48.564Z,25.40
2018-09-03T10:02:17.261Z,25.97
2018-09-03T10:04:45.722Z,30.50
2018-09-03T10:07:14.462Z,27.93
2018-09-03T10:09:42.897Z,26.60
2018-09-03T10:12:11.493Z,30.43
2018-09-03T10:14:40.135Z,26.43
2018-09-03T10:17:08.642Z,27.50
2018-09-03T10:19:37.228Z,27.37
2018-09-03T10:22:05.838Z,23.97
2018-09-03T10:24:34.398Z,27.03
2018-09-03T10:27:02.857Z,26.20
2018-09-03T10:29:31.470Z,27.57
2018-09-03T10:31:59.964Z,24.57
2018-09-03T10:34:37.712Z,28.03
2018-09-03T10:37:06.960Z,22.63
2018-09-03T10:39:35.518Z,27.30
2018-09-03T10:42:04.127Z,25.90
2018-09-03T10:44:32.874Z,24.87
2018-09-03T10:47:01.557Z,25.93
2018-09-03T10:49:30.419Z,25.27
2018-09-03T10:51:58.972Z,25.33
2018-09-03T10:54:27.548Z,24.73
2018-09-03T10:56:56.029Z,24.30
2018-09-03T10:59:24.566Z,24.63
2018-09-03T11:01:53.102Z,25.37
2018-09-03T11:04:21.604Z,27.07
2018-09-03T11:06:50.155Z,25.47
2018-09-03T11:09:18.693Z,26.70
2018-09-03T11:11:47.311Z,25.70
2018-09-03T11:14:15.801Z,24.07
2018-09-03T11:16:44.316Z,25.73
2018-09-03T11:19:12.799Z,24.43
2018-09-03T11:21:41.494Z,25.53
2018-09-03T11:24:17.001Z,26.03
2018-09-03T11:26:45.592Z,24.30
2018-09-03T11:29:14.218Z,26.83
2018-09-03T11:31:42.883Z,27.57
2018-09-03T11:34:11.326Z,24.90
2018-09-03T11:36:39.837Z,25.63
2018-09-03T11:39:10.908Z,28.30
2018-09-03T11:41:39.480Z,24.07
2018-09-03T11:44:08.247Z,23.27
2018-09-03T11:46:37.062Z,25.53
2018-09-03T11:49:06.234Z,24.80
2018-09-03T11:51:34.821Z,24.60
2018-09-03T11:54:03.468Z,23.77
2018-09-03T11:56:32.034Z,22.03
2018-09-03T11:59:00.586Z,23.10
2018-09-03T12:01:29.055Z,23.03
2018-09-03T12:03:57.740Z,20.90
2018-09-03T12:06:26.274Z,24.43
2018-09-03T12:08:54.837Z,21.63
2018-09-03T12:11:23.377Z,21.27
2018-09-03T12:13:51.825Z,22.73
2018-09-03T12:16:23.729Z,23.03
2018-09-03T12:18:53.487Z,21.77
2018-09-03T12:21:22.024Z,25.30
2018-09-03T12:24:01.398Z,25.80
2018-09-03T12:26:29.945Z,23.10
2018-09-03T12:28:58.431Z,21.77
2018-09-03T12:31:27.073Z,19.73
2018-09-03T12:33:55.648Z,20.17
2018-09-03T12:36:24.098Z,20.17
2018-09-03T12:38:52.650Z,18.50
2018-09-03T12:41:21.170Z,24.07
2018-09-03T12:43:49.822Z,17.67
2018-09-03T12:46:18.383Z,18.90
2018-09-03T12:48:46.899Z,16.30
2018-09-03T12:51:21.340Z,21.50
2018-09-03T12:53:49.942Z,25.40
2018-09-03T12:56:18.590Z,19.60
2018-09-03T12:58:47.215Z,23.53
2018-09-03T13:01:15.666Z,21.13
2018-09-03T13:03:44.237Z,21.37
2018-09-03T13:06:12.733Z,17.60
2018-09-03T13:08:41.546Z,24.33
2018-09-03T13:11:10.092Z,28.37
2018-09-03T13:13:38.771Z,23.27
2018-09-03T13:16:07.487Z,23.60
2018-09-03T13:18:36.049Z,22.47
2018-09-03T13:21:04.764Z,22.83
2018-09-03T13:23:33.306Z,18.80
2018-09-03T13:26:01.798Z,20.13
2018-09-03T13:28:30.260Z,21.43
2018-09-03T13:30:58.928Z,31.40
2018-09-03T13:33:27.621Z,22.53
2018-09-03T13:36:07.280Z,26.30
2018-09-03T13:38:45.234Z,21.47
2018-09-03T13:41:13.829Z,25.57
2018-09-03T13:43:42.417Z,21.30
2018-09-03T13:46:10.951Z,27.00
2018-09-03T13:48:39.541Z,22.80
2018-09-03T13:51:08.124Z,28.33
2018-09-03T13:53:36.800Z,21.77
2018-09-03T13:56:05.443Z,29.80
2018-09-03T13:58:34.087Z,25.20
2018-09-03T14:01:02.662Z,25.53
2018-09-03T14:03:31.252Z,27.30
2018-09-03T14:05:59.890Z,30.80
2018-09-03T14:08:28.461Z,22.23
2018-09-03T14:10:56.920Z,31.23
2018-09-03T14:13:25.520Z,24.37
2018-09-03T14:15:54.093Z,29.60
2018-09-03T14:18:22.722Z,23.67
2018-09-03T14:20:51.292Z,26.00
2018-09-03T14:23:19.844Z,22.43
2018-09-03T14:25:48.404Z,26.53
2018-09-03T14:28:16.873Z,22.07
2018-09-03T14:30:55.895Z,26.93
2018-09-03T14:33:24.596Z,31.30
2018-09-03T14:35:53.150Z,23.50
2018-09-03T14:38:21.606Z,27.23
2018-09-03T14:40:50.075Z,21.97
2018-09-03T14:43:18.717Z,25.40
2018-09-03T14:45:47.313Z,25.20
2018-09-03T14:48:15.779Z,27.03
2018-09-03T14:50:44.330Z,21.13
2018-09-03T14:53:12.891Z,25.83
2018-09-03T14:55:41.464Z,21.67
2018-09-03T14:58:10.022Z,26.30
2018-09-03T15:00:38.585Z,22.67
2018-09-03T15:03:07.175Z,30.30
2018-09-03T15:05:35.809Z,20.83
2018-09-03T15:08:04.732Z,27.13
2018-09-03T15:10:33.231Z,22.20
2018-09-03T15:13:01.736Z,25.50
2018-09-03T15:15:30.216Z,21.50
2018-09-03T15:17:58.714Z,26.07
2018-09-03T15:20:27.221Z,24.17
2018-09-03T15:22:55.765Z,29.47
2018-09-03T15:25:24.353Z,24.07
2018-09-03T15:27:52.815Z,30.77
2018-09-03T15:30:21.496Z,24.20
2018-09-03T15:32:49.947Z,31.10
2018-09-03T15:35:18.546Z,21.93
2018-09-03T15:37:47.064Z,27.33
2018-09-03T15:40:15.654Z,22.93
2018-09-03T15:42:44.227Z,38.73
2018-09-03T15:45:12.723Z,23.83
2018-09-03T15:47:41.259Z,39.07
2018-09-03T15:50:09.763Z,31.63
2018-09-03T15:52:38.230Z,27.47
2018-09-03T15:55:07.090Z,23.33
2018-09-03T15:57:35.598Z,28.83
2018-09-03T16:00:04.334Z,31.17
2018-09-03T16:02:32.891Z,22.80
2018-09-03T16:05:01.634Z,28.60
2018-09-03T16:07:30.183Z,25.10
2018-09-03T16:09:58.793Z,32.40
2018-09-03T16:12:27.675Z,28.77
2018-09-03T16:15:11.497Z,24.57
2018-09-03T16:17:40.055Z,31.03
2018-09-03T16:20:08.638Z,22.47
2018-09-03T16:22:37.089Z,26.00
2018-09-03T16:25:05.872Z,24.73
2018-09-03T16:27:34.488Z,26.70
2018-09-03T16:30:02.987Z,27.43
2018-09-03T16:32:31.492Z,25.73
2018-09-03T16:35:00.143Z,24.17
2018-09-03T16:37:28.729Z,27.70
2018-09-03T16:39:57.406Z,27.00
2018-09-03T16:42:25.899Z,34.80
2018-09-03T16:44:54.516Z,27.80
2018-09-03T16:47:23.064Z,32.50
2018-09-03T16:49:51.570Z,27.13
2018-09-03T16:52:20.247Z,26.60
2018-09-03T16:54:48.855Z,35.20
2018-09-03T16:57:17.393Z,28.87
2018-09-03T16:59:45.983Z,28.13
2018-09-03T17:02:14.609Z,26.87
2018-09-03T17:04:43.254Z,30.23
2018-09-03T17:07:11.720Z,30.87
2018-09-03T17:09:40.268Z,28.93
2018-09-03T17:12:08.889Z,31.03
2018-09-03T17:14:37.397Z,45.67
2018-09-03T17:17:06.209Z,48.53
2018-09-03T17:19:34.773Z,34.10
2018-09-03T17:25:33.045Z,37.70
2018-09-03T17:28:01.572Z,30.83
2018-09-03T17:30:30.038Z,35.37
2018-09-03T17:32:58.761Z,30.40
2018-09-03T17:35:27.642Z,31.90
2018-09-03T17:37:56.173Z,45.33
2018-09-03T17:40:24.781Z,33.30
2018-09-03T17:42:53.451Z,34.80
2018-09-03T17:45:22.009Z,36.80
2018-09-03T17:47:50.599Z,36.07
2018-09-03T17:50:19.089Z,34.23
2018-09-03T17:52:49.316Z,35.60
2018-09-03T17:55:17.804Z,30.23
2018-09-03T17:57:46.262Z,35.80
2018-09-03T18:00:39.063Z,34.10
2018-09-03T18:03:07.694Z,30.90
2018-09-03T18:05:37.260Z,34.63
2018-09-03T18:08:06.155Z,35.07
2018-09-03T18:10:35.469Z,32.60
2018-09-03T18:13:04.278Z,34.50
2018-09-03T18:15:32.846Z,31.87
2018-09-03T18:18:06.220Z,29.47
2018-09-03T18:20:34.691Z,31.53
2018-09-03T18:23:03.676Z,30.07
2018-09-03T18:26:05.141Z,31.57
2018-09-03T18:28:33.821Z,29.87
2018-09-03T18:31:02.386Z,33.03
2018-09-03T18:33:31.183Z,31.37
2018-09-03T18:35:59.920Z,33.00
2018-09-03T18:38:28.672Z,33.83
2018-09-03T18:40:57.282Z,32.60
2018-09-03T18:43:26.507Z,33.77
2018-09-03T18:45:55.867Z,31.77
2018-09-03T18:48:24.549Z,29.83
2018-09-03T18:50:53.511Z,33.10
2018-09-03T18:53:22.274Z,32.80
2018-09-03T18:55:51.176Z,31.63
2018-09-03T18:58:20.433Z,30.03
2018-09-03T19:00:49.384Z,29.83
2018-09-03T19:03:18.584Z,32.83
2018-09-03T19:05:47.195Z,33.77
2018-09-03T19:08:16.166Z,35.20
2018-09-03T19:10:44.877Z,36.03
2018-09-03T19:13:13.825Z,32.27
2018-09-03T19:15:42.571Z,34.87
2018-09-03T19:18:11.226Z,33.13
2018-09-03T19:20:40.105Z,29.43
2018-09-03T19:23:09.308Z,31.40
2018-09-03T19:25:37.944Z,35.97
2018-09-03T19:28:06.819Z,32.17
2018-09-03T19:30:35.369Z,34.10
2018-09-03T19:33:03.994Z,37.27
2018-09-03T19:35:33.031Z,35.60
2018-09-03T19:38:01.777Z,39.13
2018-09-03T19:40:30.352Z,34.40
2018-09-03T19:42:58.972Z,34.37
2018-09-03T19:45:27.542Z,32.07
2018-09-03T19:47:56.996Z,30.80
2018-09-03T19:50:25.603Z,35.13
2018-09-03T19:52:54.323Z,34.40
2018-09-03T19:55:23.105Z,32.97
2018-09-03T19:57:51.750Z,35.20
2018-09-03T20:00:37.467Z,37.37
2018-09-03T20:03:06.288Z,36.77
2018-09-03T20:05:34.911Z,30.03
2018-09-03T20:08:03.590Z,32.30
2018-09-03T20:10:32.148Z,39.40
2018-09-03T20:13:00.934Z,55.10
2018-09-03T20:15:29.650Z,36.87
2018-09-03T20:17:58.413Z,40.30
2018-09-03T20:23:50.004Z,39.50
2018-09-03T20:26:18.745Z,34.73
2018-09-03T20:28:47.385Z,38.57
2018-09-03T20:31:16.099Z,40.37
2018-09-03T20:33:44.820Z,40.53
2018-09-03T20:36:13.547Z,36.33
2018-09-03T20:38:42.278Z,40.13
2018-09-03T20:41:10.850Z,36.90
2018-09-03T20:43:39.314Z,44.53
2018-09-03T20:46:07.985Z,41.30
2018-09-03T20:48:36.573Z,43.10
2018-09-03T20:51:05.776Z,46.13
2018-09-03T20:53:34.363Z,44.67
2018-09-03T20:56:03.297Z,59.57
2018-09-03T20:58:31.889Z,52.60
2018-09-03T21:01:00.629Z,54.80
2018-09-03T21:03:29.285Z,52.77
2018-09-03T21:05:57.988Z,48.03
2018-09-03T21:08:26.674Z,56.07
2018-09-03T21:10:55.148Z,62.07
2018-09-03T21:13:23.804Z,56.97
2018-09-03T21:15:52.854Z,56.03
2018-09-03T21:18:21.365Z,55.90
2018-09-03T21:24:18.003Z,51.80
2018-09-03T21:26:46.596Z,50.83
2018-09-03T21:29:16.004Z,51.87
2018-09-03T21:31:44.491Z,60.20
2018-09-03T21:34:13.549Z,55.80
2018-09-03T21:36:42.573Z,53.20
2018-09-03T21:39:11.295Z,49.90
2018-09-03T21:41:41.004Z,57.00
2018-09-03T21:44:09.908Z,57.97
2018-09-03T21:46:38.552Z,54.67
2018-09-03T21:49:07.146Z,51.13
2018-09-03T21:51:35.660Z,53.53
2018-09-03T21:54:08.266Z,48.67
2018-09-03T21:56:36.886Z,50.67
2018-09-03T21:59:05.458Z,53.27
2018-09-03T22:01:34.044Z,52.70
2018-09-03T22:04:02.572Z,57.07
2018-09-03T22:06:32.168Z,60.23
2018-09-03T22:09:01.438Z,58.43
2018-09-03T22:11:29.913Z,57.87
2018-09-03T22:13:58.466Z,59.10
2018-09-03T22:16:27.019Z,58.57
2018-09-03T22:18:55.631Z,67.47
2018-09-03T22:21:24.207Z,69.20
2018-09-03T22:23:52.804Z,76.63
2018-09-03T22:26:21.384Z,68.73
2018-09-03T22:28:49.990Z,64.10
2018-09-03T22:31:18.552Z,70.57
2018-09-03T22:33:47.193Z,66.33
2018-09-03T22:36:15.705Z,85.93
2018-09-03T22:38:44.505Z,84.20
2018-09-03T22:41:13.081Z,84.90
2018-09-03T22:44:23.324Z,86.67
2018-09-03T22:46:51.858Z,91.70
2018-09-03T22:49:20.420Z,100.37
2018-09-03T22:51:49.123Z,105.80
2018-09-03T22:54:17.683Z,96.73
2018-09-03T22:56:46.420Z,102.10
2018-09-03T22:59:15.115Z,90.53
2018-09-03T23:01:43.683Z,92.93
2018-09-03T23:04:12.116Z,95.00
2018-09-03T23:06:40.594Z,92.63
2018-09-03T23:09:09.069Z,91.77
2018-09-03T23:11:37.545Z,85.73
2018-09-03T23:14:09.673Z,73.27
2018-09-03T23:16:38.446Z,83.33
2018-09-03T23:19:07.148Z,83.87
2018-09-03T23:21:35.693Z,84.83
2018-09-03T23:24:04.327Z,74.20
2018-09-03T23:26:32.835Z,75.00
2018-09-03T23:29:01.345Z,86.47
2018-09-03T23:31:57.350Z,71.40
2018-09-03T23:34:25.894Z,73.40
2018-09-03T23:37:12.756Z,51.70
2018-09-03T23:39:41.160Z,46.53
2018-09-03T23:42:09.620Z,34.97
2018-09-03T23:44:38.098Z,47.93
2018-09-03T23:47:06.701Z,81.23
2018-09-03T23:49:35.181Z,54.47
2018-09-03T23:52:03.768Z,36.50
2018-09-03T23:54:32.280Z,28.20
2018-09-03T23:57:03.292Z,40.83
2018-09-03T23:59:31.940Z,77.10
